createdAt,value
2023-03-20T00:02:22.869Z,12.50
2023-03-20T00:04:51.990Z,12.50
2023-03-20T00:07:18.909Z,12.40
2023-03-20T00:09:46.066Z,12.50
2023-03-20T00:12:24.178Z,12.40
2023-03-20T00:14:53.203Z,12.30
2023-03-20T00:17:21.415Z,12.30
2023-03-20T00:19:48.760Z,12.30
2023-03-20T00:22:15.764Z,12.30
2023-03-20T00:24:42.650Z,12.20
2023-03-20T00:27:17.079Z,12.20
2023-03-20T00:29:47.645Z,12.20
2023-03-20T00:32:15.185Z,12.10
2023-03-20T00:34:42.351Z,12.10
2023-03-20T00:37:11.587Z,12.10
2023-03-20T00:39:38.691Z,12.10
2023-03-20T00:42:09.845Z,12.00
2023-03-20T00:44:42.095Z,12.00
2023-03-20T00:47:20.544Z,12.00
2023-03-20T00:49:50.738Z,11.90
2023-03-20T00:52:19.641Z,11.90
2023-03-20T00:54:46.959Z,11.90
2023-03-20T00:57:30.814Z,11.80
2023-03-20T01:00:08.937Z,11.80
2023-03-20T01:02:35.975Z,11.80
2023-03-20T01:05:03.880Z,11.80
2023-03-20T01:07:30.800Z,11.80
2023-03-20T01:09:57.673Z,11.80
2023-03-20T01:12:24.943Z,11.80
2023-03-20T01:14:56.954Z,11.80
2023-03-20T01:17:25.216Z,11.70
2023-03-20T01:19:52.399Z,11.70
2023-03-20T01:22:19.435Z,11.70
2023-03-20T01:24:47.346Z,11.70
2023-03-20T01:27:23.597Z,11.70
2023-03-20T01:29:50.724Z,11.70
2023-03-20T01:32:19.332Z,11.70
2023-03-20T01:34:49.475Z,11.70
2023-03-20T01:37:27.863Z,11.70
2023-03-20T01:39:58.947Z,11.70
2023-03-20T01:42:26.923Z,11.70
2023-03-20T01:44:53.959Z,11.70
2023-03-20T01:47:25.961Z,11.70
2023-03-20T01:50:23.976Z,11.70
2023-03-20T01:53:24.656Z,11.70
2023-03-20T01:56:00.264Z,11.70
2023-03-20T01:58:43.840Z,11.70
2023-03-20T02:01:13.642Z,11.70
2023-03-20T02:03:47.105Z,11.60
2023-03-20T02:06:26.749Z,11.70
2023-03-20T02:09:04.626Z,11.60
2023-03-20T02:11:40.159Z,11.60
2023-03-20T02:14:08.455Z,11.60
2023-03-20T02:16:50.287Z,11.60
2023-03-20T02:19:32.043Z,11.60
2023-03-20T02:22:22.095Z,11.60
2023-03-20T02:25:36.987Z,11.60
2023-03-20T02:28:27.423Z,11.60
2023-03-20T02:31:13.227Z,11.60
2023-03-20T02:33:41.372Z,11.60
2023-03-20T02:36:27.213Z,11.60
2023-03-20T02:39:00.270Z,11.60
2023-03-20T02:41:51.120Z,11.60
2023-03-20T02:44:36.255Z,11.60
2023-03-20T02:47:28.844Z,11.60
2023-03-20T02:50:07.591Z,11.60
2023-03-20T02:52:46.620Z,11.60
2023-03-20T02:55:34.576Z,11.60
2023-03-20T02:58:13.797Z,11.60
2023-03-20T03:00:47.446Z,11.60
2023-03-20T03:03:24.281Z,11.60
2023-03-20T03:06:00.344Z,11.60
2023-03-20T03:08:33.730Z,11.60
2023-03-20T03:11:08.853Z,11.60
2023-03-20T03:13:50.841Z,11.60
2023-03-20T03:16:28.973Z,11.50
2023-03-20T03:19:21.976Z,11.60
2023-03-20T03:21:49.488Z,11.60
2023-03-20T03:24:26.717Z,11.60
2023-03-20T03:27:03.712Z,11.60
2023-03-20T03:29:36.574Z,11.50
2023-03-20T03:32:28.928Z,11.50
2023-03-20T03:34:59.142Z,11.50
2023-03-20T03:37:48.256Z,11.50
2023-03-20T03:40:46.455Z,11.50
2023-03-20T03:43:17.379Z,11.40
2023-03-20T03:46:19.314Z,11.40
2023-03-20T03:48:54.342Z,11.40
2023-03-20T03:51:28.518Z,11.40
2023-03-20T03:54:16.572Z,11.30
2023-03-20T03:56:49.493Z,11.30
2023-03-20T03:59:29.561Z,11.30
2023-03-20T04:01:58.326Z,11.30
2023-03-20T04:04:28.058Z,11.30
2023-03-20T04:06:55.683Z,11.30
2023-03-20T04:09:22.658Z,11.30
2023-03-20T04:11:53.587Z,11.30
2023-03-20T04:14:22.838Z,11.30
2023-03-20T04:16:49.839Z,11.30
2023-03-20T04:19:19.247Z,11.30
2023-03-20T04:21:46.338Z,11.30
2023-03-20T04:24:13.286Z,11.30
2023-03-20T04:26:40.433Z,11.20
2023-03-20T04:29:07.347Z,11.20
2023-03-20T04:32:03.138Z,11.20
2023-03-20T04:34:42.775Z,11.20
2023-03-20T04:37:27.966Z,11.20
2023-03-20T04:40:04.451Z,11.20
2023-03-20T04:42:31.653Z,11.20
2023-03-20T04:45:02.628Z,11.20
2023-03-20T04:47:31.887Z,11.20
2023-03-20T04:49:58.933Z,11.20
2023-03-20T04:52:26.308Z,11.30
2023-03-20T04:54:53.191Z,11.20
2023-03-20T04:57:20.259Z,11.20
2023-03-20T04:59:49.743Z,11.20
2023-03-20T05:02:18.017Z,11.30
2023-03-20T05:04:44.988Z,11.30
2023-03-20T05:07:14.294Z,11.30
2023-03-20T05:10:07.570Z,11.30
2023-03-20T05:12:44.562Z,11.30
2023-03-20T05:15:30.180Z,11.30
2023-03-20T05:18:23.639Z,11.30
2023-03-20T05:21:04.307Z,11.30
2023-03-20T05:23:51.484Z,11.20
2023-03-20T05:26:41.469Z,11.20
2023-03-20T05:29:46.287Z,11.20
2023-03-20T05:32:31.358Z,11.20
2023-03-20T05:35:26.762Z,11.20
2023-03-20T05:38:02.864Z,11.20
2023-03-20T05:40:57.534Z,11.20
2023-03-20T05:43:42.710Z,11.30
2023-03-20T05:46:44.049Z,11.30
2023-03-20T05:49:24.985Z,11.30
2023-03-20T05:52:24.112Z,11.30
2023-03-20T05:55:29.420Z,11.30
2023-03-20T05:58:15.538Z,11.30
2023-03-20T06:01:05.232Z,11.30
2023-03-20T06:03:41.063Z,11.30
2023-03-20T06:06:14.181Z,11.30
2023-03-20T06:08:44.421Z,11.30
2023-03-20T06:11:11.786Z,11.30
2023-03-20T06:13:39.949Z,11.30
2023-03-20T06:16:10.441Z,11.30
2023-03-20T06:18:42.383Z,11.30
2023-03-20T06:21:11.732Z,11.30
2023-03-20T06:23:39.328Z,11.30
2023-03-20T06:26:09.683Z,11.30
2023-03-20T06:28:50.163Z,11.30
2023-03-20T06:31:17.877Z,11.30
2023-03-20T06:33:45.188Z,11.30
2023-03-20T06:36:15.499Z,11.30
2023-03-20T06:38:42.549Z,11.20
2023-03-20T06:41:27.838Z,11.20
2023-03-20T06:44:02.586Z,11.20
2023-03-20T06:46:46.379Z,11.10
2023-03-20T06:49:13.341Z,11.10
2023-03-20T06:51:40.532Z,11.20
2023-03-20T06:54:11.016Z,11.10
2023-03-20T06:56:37.980Z,11.10
2023-03-20T06:59:04.970Z,11.00
2023-03-20T07:01:32.384Z,11.00
2023-03-20T07:03:59.501Z,11.00
2023-03-20T07:06:32.128Z,11.00
2023-03-20T07:09:01.670Z,10.90
2023-03-20T07:11:31.076Z,10.90
2023-03-20T07:13:59.656Z,10.90
2023-03-20T07:16:38.143Z,11.00
2023-03-20T07:19:05.299Z,11.00
2023-03-20T07:21:35.265Z,11.00
2023-03-20T07:24:04.699Z,10.90
2023-03-20T07:26:34.114Z,10.90
2023-03-20T07:29:02.109Z,11.00
2023-03-20T07:31:31.193Z,10.80
2023-03-20T07:34:27.140Z,10.90
2023-03-20T07:36:55.486Z,10.90
2023-03-20T07:39:23.451Z,10.90
2023-03-20T07:42:05.335Z,10.90
2023-03-20T07:44:44.609Z,10.90
2023-03-20T07:47:12.371Z,10.90
2023-03-20T07:49:39.249Z,10.90
2023-03-20T07:52:08.254Z,10.90
2023-03-20T07:54:35.419Z,10.90
2023-03-20T07:57:05.436Z,10.90
2023-03-20T07:59:37.669Z,11.00
2023-03-20T08:02:04.639Z,11.20
2023-03-20T08:04:31.465Z,11.30
2023-03-20T08:06:58.614Z,11.30
2023-03-20T08:09:25.697Z,11.40
2023-03-20T08:11:52.589Z,11.40
2023-03-20T08:14:19.455Z,11.50
2023-03-20T08:16:56.336Z,11.50
2023-03-20T08:19:29.518Z,11.60
2023-03-20T08:22:03.069Z,11.60
2023-03-20T08:24:32.571Z,11.50
2023-03-20T08:26:59.939Z,11.50
2023-03-20T08:29:29.514Z,11.40
2023-03-20T08:31:58.975Z,11.40
2023-03-20T08:34:26.418Z,11.40
2023-03-20T08:36:53.261Z,11.50
2023-03-20T08:39:20.222Z,11.60
2023-03-20T08:41:47.077Z,11.80
2023-03-20T08:44:16.415Z,12.50
2023-03-20T08:46:46.518Z,14.00
2023-03-20T08:49:13.720Z,15.40
2023-03-20T08:51:40.725Z,16.50
2023-03-20T08:54:07.595Z,16.30
2023-03-20T08:56:37.044Z,16.50
2023-03-20T08:59:04.177Z,16.00
2023-03-20T09:01:46.237Z,15.50
2023-03-20T09:04:15.913Z,15.20
2023-03-20T09:06:45.301Z,14.70
2023-03-20T09:09:15.746Z,14.90
2023-03-20T09:11:45.780Z,14.90
2023-03-20T09:14:12.658Z,14.50
2023-03-20T09:16:39.566Z,14.00
2023-03-20T09:19:06.608Z,13.80
2023-03-20T09:21:33.518Z,13.70
2023-03-20T09:24:00.428Z,13.60
2023-03-20T09:26:29.339Z,13.50
2023-03-20T09:28:58.484Z,13.50
2023-03-20T09:31:25.473Z,13.40
2023-03-20T09:33:54.627Z,13.30
2023-03-20T09:36:21.985Z,13.20
2023-03-20T09:38:51.233Z,13.20
2023-03-20T09:41:21.910Z,13.20
2023-03-20T09:43:54.996Z,13.80
2023-03-20T09:46:49.729Z,14.40
2023-03-20T09:49:43.567Z,15.30
2023-03-20T09:52:10.750Z,15.70
2023-03-20T09:54:53.593Z,15.30
2023-03-20T09:57:27.916Z,14.90
2023-03-20T10:00:04.694Z,14.50
2023-03-20T10:02:51.440Z,14.10
2023-03-20T10:05:28.457Z,13.90
2023-03-20T10:08:01.110Z,13.70
2023-03-20T10:10:39.768Z,13.60
2023-03-20T10:13:55.010Z,13.50
2023-03-20T10:16:37.380Z,13.40
2023-03-20T10:19:24.638Z,13.40
2023-03-20T10:22:24.923Z,13.40
2023-03-20T10:25:04.397Z,13.20
2023-03-20T10:27:46.192Z,13.10
2023-03-20T10:30:34.818Z,13.00
2023-03-20T10:33:10.882Z,12.90
2023-03-20T10:35:37.901Z,12.90
2023-03-20T10:38:24.899Z,12.80
2023-03-20T10:40:52.858Z,12.80
2023-03-20T10:43:33.556Z,12.80
2023-03-20T10:46:16.086Z,12.90
2023-03-20T10:49:01.730Z,13.00
2023-03-20T10:51:42.104Z,13.00
2023-03-20T10:54:23.366Z,13.20
2023-03-20T10:56:56.712Z,13.20
2023-03-20T10:59:29.391Z,13.30
2023-03-20T11:01:56.593Z,13.20
2023-03-20T11:04:25.742Z,13.20
2023-03-20T11:07:11.754Z,13.20
2023-03-20T11:09:38.915Z,13.20
2023-03-20T11:12:05.949Z,13.20
2023-03-20T11:14:35.758Z,13.20
2023-03-20T11:17:04.667Z,13.20
2023-03-20T11:19:36.928Z,13.20
2023-03-20T11:22:21.906Z,13.20
2023-03-20T11:24:54.797Z,13.20
2023-03-20T11:27:33.047Z,13.30
2023-03-20T11:30:05.769Z,13.40
2023-03-20T11:32:40.624Z,13.50
2023-03-20T11:35:25.984Z,13.40
2023-03-20T11:37:55.297Z,13.40
2023-03-20T11:40:23.652Z,13.30
2023-03-20T11:42:57.798Z,13.30
2023-03-20T11:45:26.265Z,13.40
2023-03-20T11:47:56.767Z,13.40
2023-03-20T11:50:35.124Z,13.20
2023-03-20T11:53:04.044Z,13.10
2023-03-20T11:55:35.889Z,13.10
2023-03-20T11:58:08.012Z,13.10
2023-03-20T12:00:38.281Z,13.10
2023-03-20T12:03:34.262Z,13.10
2023-03-20T12:06:03.952Z,13.30
2023-03-20T12:08:40.830Z,13.30
2023-03-20T12:11:38.088Z,13.40
2023-03-20T12:14:25.499Z,13.50
2023-03-20T12:16:59.249Z,13.60
2023-03-20T12:19:30.721Z,13.90
2023-03-20T12:22:16.674Z,14.00
2023-03-20T12:24:54.948Z,14.00
2023-03-20T12:27:29.386Z,14.00
2023-03-20T12:30:05.589Z,13.80
2023-03-20T12:32:48.853Z,13.90
2023-03-20T12:35:27.178Z,13.90
2023-03-20T12:37:54.156Z,13.80
2023-03-20T12:40:28.089Z,13.90
2023-03-20T12:43:03.478Z,13.90
2023-03-20T12:45:44.957Z,13.90
2023-03-20T12:48:45.876Z,14.00
2023-03-20T12:51:26.405Z,14.00
2023-03-20T12:54:08.897Z,13.90
2023-03-20T12:57:07.021Z,13.90
2023-03-20T13:00:13.129Z,13.90
2023-03-20T13:03:01.413Z,13.80
2023-03-20T13:05:28.299Z,13.70
2023-03-20T13:08:18.416Z,13.60
2023-03-20T13:11:02.140Z,13.60
2023-03-20T13:13:46.502Z,13.50
2023-03-20T13:16:51.107Z,13.50
2023-03-20T13:19:44.526Z,13.50
2023-03-20T13:22:20.682Z,13.50
2023-03-20T13:24:59.464Z,13.60
2023-03-20T13:27:49.925Z,13.50
2023-03-20T13:30:51.949Z,13.70
2023-03-20T13:33:48.108Z,14.00
2023-03-20T13:36:27.440Z,14.30
2023-03-20T13:39:21.300Z,14.30
2023-03-20T13:41:52.233Z,14.40
2023-03-20T13:44:24.746Z,14.40
2023-03-20T13:47:11.661Z,14.40
2023-03-20T13:49:57.137Z,14.30
2023-03-20T13:52:30.888Z,14.20
2023-03-20T13:55:41.855Z,14.10
2023-03-20T13:58:22.625Z,14.00
2023-03-20T14:01:06.488Z,13.90
2023-03-20T14:03:38.458Z,13.80
2023-03-20T14:06:32.610Z,13.70
2023-03-20T14:09:00.976Z,13.60
2023-03-20T14:11:37.767Z,13.60
2023-03-20T14:14:17.165Z,13.50
2023-03-20T14:16:46.708Z,13.40
2023-03-20T14:19:21.139Z,13.40
2023-03-20T14:21:56.984Z,13.30
2023-03-20T14:24:27.307Z,13.20
2023-03-20T14:27:00.025Z,13.10
2023-03-20T14:29:30.136Z,13.00
2023-03-20T14:32:15.630Z,13.00
2023-03-20T14:34:46.916Z,13.00
2023-03-20T14:37:37.779Z,12.90
2023-03-20T14:40:17.016Z,12.90
2023-03-20T14:43:01.847Z,12.90
2023-03-20T14:45:44.184Z,12.90
2023-03-20T14:48:44.246Z,12.90
2023-03-20T14:51:22.654Z,12.90
2023-03-20T14:54:21.484Z,12.90
2023-03-20T14:56:52.444Z,13.00
2023-03-20T14:59:24.385Z,12.90
2023-03-20T15:02:05.636Z,12.90
2023-03-20T15:04:44.949Z,13.00
2023-03-20T15:07:19.075Z,13.00
2023-03-20T15:09:49.028Z,13.00
2023-03-20T15:12:21.220Z,13.00
2023-03-20T15:14:59.687Z,13.00
2023-03-20T15:17:36.006Z,13.10
2023-03-20T15:20:22.165Z,13.10
2023-03-20T15:22:50.156Z,13.10
2023-03-20T15:25:19.262Z,13.10
2023-03-20T15:27:47.016Z,13.10
2023-03-20T15:30:21.967Z,13.10
2023-03-20T15:32:50.438Z,13.20
2023-03-20T15:35:20.941Z,13.10
2023-03-20T15:37:49.807Z,13.10
2023-03-20T15:40:51.013Z,13.10
2023-03-20T15:43:28.097Z,13.10
2023-03-20T15:46:16.225Z,13.00
2023-03-20T15:48:48.831Z,13.00
2023-03-20T15:51:18.782Z,13.00
2023-03-20T15:53:48.914Z,12.90
2023-03-20T15:56:19.541Z,12.90
2023-03-20T15:58:51.866Z,12.90
2023-03-20T16:01:24.442Z,13.00
2023-03-20T16:03:53.566Z,12.90
2023-03-20T16:06:26.579Z,13.00
2023-03-20T16:09:07.064Z,13.00
2023-03-20T16:11:39.909Z,13.00
2023-03-20T16:14:14.486Z,13.00
2023-03-20T16:16:41.757Z,13.00
2023-03-20T16:19:12.342Z,12.90
2023-03-20T16:21:41.279Z,12.90
2023-03-20T16:24:14.889Z,12.90
2023-03-20T16:26:48.155Z,12.90
2023-03-20T16:29:15.878Z,12.90
2023-03-20T16:31:59.415Z,12.80
2023-03-20T16:34:33.708Z,12.80
2023-03-20T16:37:07.776Z,12.80
2023-03-20T16:39:36.743Z,12.80
2023-03-20T16:42:22.402Z,12.70
2023-03-20T16:45:00.477Z,12.70
2023-03-20T16:47:39.118Z,12.70
2023-03-20T16:50:15.119Z,12.60
2023-03-20T16:52:55.970Z,12.50
2023-03-20T16:55:28.564Z,12.50
2023-03-20T16:58:05.429Z,12.50
2023-03-20T17:01:03.262Z,12.40
2023-03-20T17:03:39.909Z,12.40
2023-03-20T17:06:21.638Z,12.40
2023-03-20T17:08:51.202Z,12.40
2023-03-20T17:11:37.623Z,12.40
2023-03-20T17:14:05.409Z,12.30
2023-03-20T17:16:36.660Z,12.30
2023-03-20T17:19:10.961Z,12.30
2023-03-20T17:21:41.020Z,12.30
2023-03-20T17:24:08.028Z,12.30
2023-03-20T17:26:35.054Z,12.20
2023-03-20T17:29:03.999Z,12.20
2023-03-20T17:31:33.191Z,12.20
2023-03-20T17:34:00.196Z,12.20
2023-03-20T17:36:35.204Z,12.10
2023-03-20T17:39:02.766Z,12.10
2023-03-20T17:41:29.927Z,12.10
2023-03-20T17:43:56.877Z,12.10
2023-03-20T17:46:29.660Z,12.10
2023-03-20T17:49:06.381Z,12.00
2023-03-20T17:51:36.628Z,12.00
2023-03-20T17:54:05.587Z,12.00
2023-03-20T17:56:33.055Z,12.00
2023-03-20T17:59:01.663Z,12.00
2023-03-20T18:01:32.264Z,12.00
2023-03-20T18:04:02.133Z,12.00
2023-03-20T18:06:32.601Z,11.90
2023-03-20T18:09:01.419Z,11.90
2023-03-20T18:11:29.092Z,11.90
2023-03-20T18:13:56.078Z,11.90
2023-03-20T18:16:26.179Z,11.90
2023-03-20T18:18:54.280Z,11.80
2023-03-20T18:21:21.322Z,11.90
2023-03-20T18:23:50.869Z,11.80
2023-03-20T18:26:27.914Z,11.80
2023-03-20T18:28:55.635Z,11.80
2023-03-20T18:31:22.962Z,11.80
2023-03-20T18:33:53.277Z,11.70
2023-03-20T18:36:22.771Z,11.70
2023-03-20T18:38:50.641Z,11.70
2023-03-20T18:41:22.579Z,11.70
2023-03-20T18:43:52.247Z,11.70
2023-03-20T18:46:21.832Z,11.70
2023-03-20T18:48:50.974Z,11.70
2023-03-20T18:51:21.022Z,11.60
2023-03-20T18:53:48.105Z,11.70
2023-03-20T18:56:17.697Z,11.70
2023-03-20T18:58:45.401Z,11.70
2023-03-20T19:01:15.884Z,11.70
2023-03-20T19:03:44.879Z,11.60
2023-03-20T19:06:16.337Z,11.60
2023-03-20T19:08:44.589Z,11.60
2023-03-20T19:11:15.279Z,11.60
2023-03-20T19:13:48.817Z,11.60
2023-03-20T19:16:26.401Z,11.60
2023-03-20T19:18:55.768Z,11.60
2023-03-20T19:21:29.008Z,11.60
2023-03-20T19:23:58.085Z,11.60
2023-03-20T19:26:26.695Z,11.60
2023-03-20T19:28:55.415Z,11.60
2023-03-20T19:31:24.991Z,11.60
2023-03-20T19:33:56.645Z,11.60
2023-03-20T19:36:30.017Z,11.60
2023-03-20T19:38:58.351Z,11.60
2023-03-20T19:41:27.730Z,11.50
2023-03-20T19:43:56.347Z,11.50
2023-03-20T19:46:43.207Z,11.50
2023-03-20T19:49:30.469Z,11.50
2023-03-20T19:51:57.864Z,11.50
2023-03-20T19:54:24.663Z,11.40
2023-03-20T19:56:51.615Z,11.40
2023-03-20T19:59:18.438Z,11.40
2023-03-20T20:01:46.100Z,11.40
2023-03-20T20:04:16.155Z,11.30
2023-03-20T20:06:43.231Z,11.30
2023-03-20T20:09:12.602Z,11.30
2023-03-20T20:11:39.568Z,11.20
2023-03-20T20:14:09.838Z,11.30
2023-03-20T20:16:39.928Z,11.20
2023-03-20T20:19:07.343Z,11.20
2023-03-20T20:24:24.240Z,11.20
2023-03-20T20:27:11.538Z,11.20
2023-03-20T20:29:38.897Z,11.20
2023-03-20T20:32:05.864Z,11.20
2023-03-20T20:38:13.941Z,11.20
2023-03-20T20:40:10.499Z,11.20
2023-03-20T20:42:37.581Z,11.20
2023-03-20T20:45:05.477Z,11.20
2023-03-20T20:47:32.227Z,11.20
2023-03-20T20:49:59.008Z,11.20
2023-03-20T20:52:30.824Z,11.20
2023-03-20T20:55:00.931Z,11.20
2023-03-20T20:57:31.927Z,11.20
2023-03-20T21:00:01.765Z,11.20
2023-03-20T21:02:30.257Z,11.20
2023-03-20T21:05:00.206Z,11.10
2023-03-20T21:07:31.999Z,11.10
2023-03-20T21:09:58.900Z,11.10
2023-03-20T21:12:38.139Z,11.10
2023-03-20T21:15:09.758Z,11.10
2023-03-20T21:17:36.866Z,11.00
2023-03-20T21:20:07.369Z,11.00
2023-03-20T21:22:36.133Z,11.00
2023-03-20T21:25:14.339Z,11.00
2023-03-20T21:27:42.538Z,11.00
2023-03-20T21:30:09.997Z,11.00
2023-03-20T21:32:37.255Z,10.90
2023-03-20T21:35:07.290Z,10.90
2023-03-20T21:40:26.639Z,10.90
2023-03-20T21:42:53.567Z,10.90
2023-03-20T21:48:49.716Z,10.90
2023-03-20T21:51:42.757Z,10.90
2023-03-20T21:54:37.235Z,10.90
2023-03-20T21:57:27.882Z,10.90
2023-03-20T22:00:02.162Z,10.90
2023-03-20T22:02:21.375Z,10.90
2023-03-20T22:08:26.624Z,10.90
2023-03-20T22:14:20.369Z,10.90
2023-03-20T22:31:03.286Z,10.80
2023-03-20T22:33:58.437Z,10.80
2023-03-20T22:42:06.962Z,10.80
2023-03-20T22:44:50.455Z,10.80
2023-03-20T22:46:54.033Z,10.80
2023-03-20T22:49:20.972Z,10.80
2023-03-20T22:52:08.350Z,10.70
2023-03-20T22:54:37.190Z,10.70
2023-03-20T22:57:04.131Z,10.70
2023-03-20T22:59:33.518Z,10.70
2023-03-20T23:02:00.487Z,10.70
2023-03-20T23:04:29.610Z,10.70
2023-03-20T23:07:01.940Z,10.70
2023-03-20T23:09:29.691Z,10.60
2023-03-20T23:11:56.706Z,10.60
2023-03-20T23:14:24.860Z,10.60
2023-03-20T23:16:51.843Z,10.60
2023-03-20T23:19:18.713Z,10.60
2023-03-20T23:21:45.569Z,10.60
2023-03-20T23:24:12.468Z,10.60
2023-03-20T23:26:39.366Z,10.60
2023-03-20T23:29:09.329Z,10.60
2023-03-20T23:31:36.199Z,10.60
2023-03-20T23:34:05.555Z,10.60
2023-03-20T23:36:36.822Z,10.60
2023-03-20T23:40:04.849Z,10.60
2023-03-20T23:42:31.730Z,10.60
2023-03-20T23:45:04.432Z,10.50
2023-03-20T23:47:44.830Z,10.60
2023-03-20T23:50:26.496Z,10.60
2023-03-20T23:53:06.463Z,10.50
2023-03-20T23:55:40.779Z,10.50
2023-03-20T23:58:07.860Z,10.50
